Time;durP1;ratioP1;P1;durP2;ratioP2;P2;SDS_P1;SDS_P2;PMS_P1;PMS_P2;Temp;Humidity;BMP_temperature;BMP_pressure;BME280_temperature;BME280_humidity;BME280_pressure;Samples;Min_cycle;Max_cycle;Signal;HPM_P1;HPM_P2
2022/07/04 00:07:29;;;;;;;3.5;6;;;;;;;17.5;100;98650;;;;
2022/07/04 00:17:29;;;;;;;4.3;9.7;;;;;;;17.4;100;98640;;;;
2022/07/04 00:28:29;;;;;;;4.3;9.7;;;;;;;17.3;100;98640;;;;
2022/07/04 00:38:29;;;;;;;4.3;9.7;;;;;;;17;100;98640;;;;
2022/07/04 00:49:29;;;;;;;4.2;6.4;;;;;;;16.8;100;98630;;;;
2022/07/04 01:00:29;;;;;;;4.2;6.4;;;;;;;16.4;100;98640;;;;
2022/07/04 01:10:29;;;;;;;4.2;6.4;;;;;;;16;100;98640;;;;
2022/07/04 01:21:29;;;;;;;4.6;9.1;;;;;;;16;100;98630;;;;
2022/07/04 01:31:29;;;;;;;4.6;9.1;;;;;;;15.9;100;98620;;;;
2022/07/04 01:41:29;;;;;;;4.6;9.1;;;;;;;15.7;100;98620;;;;
2022/07/04 01:52:29;;;;;;;4.6;7.5;;;;;;;15.6;100;98630;;;;
2022/07/04 02:03:29;;;;;;;4.6;7.5;;;;;;;15.4;100;98630;;;;
2022/07/04 02:13:29;;;;;;;4.6;7.5;;;;;;;15.3;100;98640;;;;
2022/07/04 02:23:29;;;;;;;4.7;6.7;;;;;;;15.2;100;98640;;;;
2022/07/04 02:34:29;;;;;;;4.7;6.7;;;;;;;15.1;100;98650;;;;
2022/07/04 02:44:30;;;;;;;5.4;8;;;;;;;15.1;100;98660;;;;
2022/07/04 02:55:29;;;;;;;5.4;8;;;;;;;15;100;98660;;;;
2022/07/04 03:05:32;;;;;;;5.4;8;;;;;;;15.1;100;98650;;;;
2022/07/04 03:15:29;;;;;;;5.3;7.8;;;;;;;15.1;100;98650;;;;
2022/07/04 03:26:29;;;;;;;5.3;7.8;;;;;;;15.1;100;98660;;;;
2022/07/04 03:36:29;;;;;;;5.3;7.8;;;;;;;15.5;100;98660;;;;
2022/07/04 03:47:29;;;;;;;6;8.7;;;;;;;16;100;98650;;;;
2022/07/04 03:57:29;;;;;;;6;8.7;;;;;;;16.1;100;98660;;;;
2022/07/04 04:08:29;;;;;;;6;8.7;;;;;;;16.4;100;98670;;;;
2022/07/04 04:18:29;;;;;;;6.7;9;;;;;;;16.7;100;98680;;;;
2022/07/04 04:28:29;;;;;;;6.7;9;;;;;;;17.2;100;98670;;;;
2022/07/04 04:38:29;;;;;;;6.7;9;;;;;;;17.7;100;98680;;;;
2022/07/04 04:49:29;;;;;;;6.6;9.4;;;;;;;18.1;100;98680;;;;
2022/07/04 04:59:29;;;;;;;6.6;9.4;;;;;;;18.7;100;98670;;;;
2022/07/04 05:09:29;;;;;;;6.6;9.4;;;;;;;19.1;100;98660;;;;
2022/07/04 05:20:29;;;;;;;7;12.3;;;;;;;19.6;100;98670;;;;
2022/07/04 05:31:29;;;;;;;7;12.3;;;;;;;19.8;100;98690;;;;
2022/07/04 05:41:29;;;;;;;7;12.3;;;;;;;20.2;100;98690;;;;
2022/07/04 05:52:29;;;;;;;5.7;8.1;;;;;;;20.4;100;98700;;;;
2022/07/04 06:02:29;;;;;;;5.7;8.1;;;;;;;20.8;100;98700;;;;
2022/07/04 06:13:29;;;;;;;5.7;8.1;;;;;;;21.3;100;98710;;;;
2022/07/04 06:24:29;;;;;;;9.1;12.4;;;;;;;21.7;100;98710;;;;
2022/07/04 06:36:01;;;;;;;9.1;12.4;;;;;;;22.1;100;98690;;;;
2022/07/04 06:45:29;;;;;;;9.1;12.3;;;;;;;22.4;100;98690;;;;
2022/07/04 06:55:29;;;;;;;9.1;12.3;;;;;;;22.7;100;98690;;;;
2022/07/04 07:06:29;;;;;;;9.1;12.3;;;;;;;23.3;100;98690;;;;
2022/07/04 07:27:29;;;;;;;8.3;12.4;;;;;;;24.2;100;98680;;;;
2022/07/04 07:37:31;;;;;;;8.3;12.4;;;;;;;24.4;100;98680;;;;
2022/07/04 07:48:29;;;;;;;8.6;10.8;;;;;;;24.9;100;98680;;;;
2022/07/04 07:58:29;;;;;;;8.6;10.8;;;;;;;25.3;100;98680;;;;
2022/07/04 08:09:29;;;;;;;8.6;10.8;;;;;;;25.5;100;98680;;;;
2022/07/04 08:19:29;;;;;;;8.3;12;;;;;;;25.8;100;98690;;;;
2022/07/04 08:30:31;;;;;;;8.3;12;;;;;;;26.3;100;98700;;;;
2022/07/04 08:40:29;;;;;;;8.3;12;;;;;;;26.4;100;98690;;;;
2022/07/04 08:51:29;;;;;;;6.8;11.9;;;;;;;27;100;98700;;;;
2022/07/04 09:01:29;;;;;;;6.8;11.9;;;;;;;27.2;100;98700;;;;
2022/07/04 09:11:29;;;;;;;6.8;11.9;;;;;;;27.3;100;98700;;;;
2022/07/04 09:22:29;;;;;;;5.1;8.5;;;;;;;27.8;83.7;98690;;;;
2022/07/04 09:44:31;;;;;;;5.1;8.5;;;;;;;28.1;77;98680;;;;
2022/07/04 09:54:31;;;;;;;;;;;;;;;;;;;;;
2022/07/04 10:05:29;;;;;;;4.2;7;;;;;;;29;68.6;98670;;;;
2022/07/04 10:16:29;;;;;;;4;7.4;;;;;;;29.4;74.5;98650;;;;
2022/07/04 10:27:29;;;;;;;4;7.4;;;;;;;29.4;71.4;98650;;;;
2022/07/04 10:37:29;;;;;;;4;7.4;;;;;;;29.9;67.9;98640;;;;
2022/07/04 10:47:30;;;;;;;3.6;5.9;;;;;;;30.3;67.2;98640;;;;
2022/07/04 10:58:29;;;;;;;3.6;5.9;;;;;;;30.6;68.5;98640;;;;
2022/07/04 11:08:29;;;;;;;3.6;5.9;;;;;;;30.2;65.6;98640;;;;
2022/07/04 11:18:29;;;;;;;3.1;6.1;;;;;;;29.9;68.9;98630;;;;
2022/07/04 11:29:29;;;;;;;3.1;6.1;;;;;;;30.2;69;98630;;;;
2022/07/04 11:39:29;;;;;;;3.1;6.1;;;;;;;30.4;74.2;98610;;;;
2022/07/04 11:49:29;;;;;;;3.5;6.8;;;;;;;30.2;65.9;98620;;;;
2022/07/04 11:59:30;;;;;;;3.5;6.8;;;;;;;30;65.3;98610;;;;
2022/07/04 12:21:29;;;;;;;2.9;5.3;;;;;;;30.6;62.8;98580;;;;
2022/07/04 12:32:29;;;;;;;2.9;5.3;;;;;;;30.2;63.9;98580;;;;
2022/07/04 12:42:29;;;;;;;2.9;5.3;;;;;;;30.4;57.2;98590;;;;
2022/07/04 12:52:29;;;;;;;2.6;5;;;;;;;30.8;57.6;98580;;;;
2022/07/04 13:02:29;;;;;;;2.6;5;;;;;;;31.4;53.7;98580;;;;
2022/07/04 13:12:29;;;;;;;2.6;5;;;;;;;31.4;50.5;98580;;;;
2022/07/04 13:23:29;;;;;;;2.2;4.3;;;;;;;31.2;53;98570;;;;
2022/07/04 13:33:29;;;;;;;2.2;4.3;;;;;;;31.4;54.2;98560;;;;
2022/07/04 13:44:29;;;;;;;2.2;4.3;;;;;;;31.7;54.5;98560;;;;
2022/07/04 13:54:29;;;;;;;2.3;4.8;;;;;;;32.5;55;98550;;;;
2022/07/04 14:05:29;;;;;;;2.3;4.8;;;;;;;31.9;52.5;98550;;;;
2022/07/04 14:15:29;;;;;;;2.2;6.3;;;;;;;31.7;56;98560;;;;
2022/07/04 14:25:31;;;;;;;2.2;6.3;;;;;;;32.3;54.9;98550;;;;
2022/07/04 14:35:29;;;;;;;2.2;6.3;;;;;;;32.2;58.2;98550;;;;
2022/07/04 14:46:29;;;;;;;2.3;6.7;;;;;;;33.1;58.6;98550;;;;
2022/07/04 14:57:29;;;;;;;2.3;6.7;;;;;;;33.8;58;98540;;;;
2022/07/04 15:08:29;;;;;;;2.3;6.7;;;;;;;34.2;44.5;98540;;;;
2022/07/04 15:18:29;;;;;;;1.9;3.8;;;;;;;33.3;46;98530;;;;
2022/07/04 15:29:29;;;;;;;1.9;3.8;;;;;;;35.5;44.1;98520;;;;
2022/07/04 15:39:29;;;;;;;1.9;3.8;;;;;;;37.5;38.1;98530;;;;
2022/07/04 15:50:29;;;;;;;1.6;4.1;;;;;;;38.6;36.7;98530;;;;
2022/07/04 16:01:29;;;;;;;1.6;4.1;;;;;;;40.1;35.4;98530;;;;
2022/07/04 16:12:29;;;;;;;1.6;4.1;;;;;;;38.5;38.6;98530;;;;
2022/07/04 16:23:29;;;;;;;1.6;4.6;;;;;;;35.3;43.5;98520;;;;
2022/07/04 16:33:29;;;;;;;1.6;4.6;;;;;;;33.3;50.3;98520;;;;
2022/07/04 16:43:29;;;;;;;1.6;4.6;;;;;;;32.7;53;98510;;;;
2022/07/04 16:54:31;;;;;;;1.8;3.9;;;;;;;30.9;57.6;98500;;;;
2022/07/04 17:05:29;;;;;;;1.8;3.9;;;;;;;30.1;62.3;98500;;;;
2022/07/04 17:15:29;;;;;;;1.8;3.9;;;;;;;29.5;64.8;98500;;;;
2022/07/04 17:25:29;;;;;;;2.8;5.9;;;;;;;28.9;73;98490;;;;
2022/07/04 17:36:29;;;;;;;2.8;5.9;;;;;;;28.8;81.6;98490;;;;
2022/07/04 17:47:29;;;;;;;48;102.1;;;;;;;28.4;80.2;98480;;;;
2022/07/04 17:58:29;;;;;;;48;102.1;;;;;;;28;90.7;98480;;;;
2022/07/04 18:09:29;;;;;;;48;102.1;;;;;;;28;87.4;98480;;;;
2022/07/04 18:19:29;;;;;;;3.2;6.3;;;;;;;27.7;84.6;98490;;;;
2022/07/04 18:29:29;;;;;;;3.2;6.3;;;;;;;27.1;89.3;98490;;;;
2022/07/04 18:50:29;;;;;;;4;7.9;;;;;;;25.8;98.3;98480;;;;
2022/07/04 19:01:29;;;;;;;4;7.9;;;;;;;25.3;99.5;98490;;;;
2022/07/04 19:12:29;;;;;;;4;7.9;;;;;;;24.9;100;98500;;;;
2022/07/04 19:23:29;;;;;;;5.3;10.3;;;;;;;24.5;100;98510;;;;
2022/07/04 19:33:29;;;;;;;5.3;10.3;;;;;;;24.3;99.6;98520;;;;
2022/07/04 19:44:29;;;;;;;5.3;10.3;;;;;;;24;99.8;98530;;;;
2022/07/04 19:54:29;;;;;;;5.3;7.4;;;;;;;23.6;100;98540;;;;
2022/07/04 20:05:29;;;;;;;5.3;7.4;;;;;;;23.5;100;98550;;;;
2022/07/04 20:16:29;;;;;;;6.6;11.5;;;;;;;23.3;100;98550;;;;
2022/07/04 20:26:29;;;;;;;6.6;11.5;;;;;;;23.1;100;98550;;;;
2022/07/04 20:37:31;;;;;;;6.6;11.5;;;;;;;23;100;98550;;;;
2022/07/04 20:48:31;;;;;;;5.4;11.8;;;;;;;22.9;100;98560;;;;
2022/07/04 20:59:29;;;;;;;5.4;11.8;;;;;;;23;100;98550;;;;
2022/07/04 21:10:29;;;;;;;5.4;11.8;;;;;;;22.9;100;98550;;;;
2022/07/04 21:21:30;;;;;;;7.7;10.7;;;;;;;22.8;100;98560;;;;
2022/07/04 21:32:29;;;;;;;7.7;10.7;;;;;;;22.8;100;98570;;;;
2022/07/04 21:43:29;;;;;;;7.7;10.7;;;;;;;22.7;100;98560;;;;
2022/07/04 21:53:29;;;;;;;7.1;14;;;;;;;22.5;100;98550;;;;
2022/07/04 22:03:29;;;;;;;7.1;14;;;;;;;22.2;100;98550;;;;
2022/07/04 22:14:29;;;;;;;7.1;14;;;;;;;22.3;100;98550;;;;
2022/07/04 22:25:29;;;;;;;6.9;10.8;;;;;;;22.2;100;98540;;;;
2022/07/04 22:35:29;;;;;;;6.9;10.8;;;;;;;22;100;98530;;;;
2022/07/04 22:46:29;;;;;;;7;11.2;;;;;;;21.7;100;98520;;;;
2022/07/04 23:43:20;;;;;;;7.8;9.4;;;;;;;21.5;100;98550;;;;
2022/07/04 23:53:20;;;;;;;7.8;9.4;;;;;;;21.5;100;98560;;;;
